Time;durP1;ratioP1;P1;durP2;ratioP2;P2;SDS_P1;SDS_P2;PMS_P1;PMS_P2;Temp;Humidity;BMP_temperature;BMP_pressure;BME280_temperature;BME280_humidity;BME280_pressure;Samples;Min_cycle;Max_cycle;Signal;HPM_P1;HPM_P2
2023/02/25 00:01:19;;;;;;;3.63;1.47;;;15.20;60.60;;;;;;5050585;28;20262;-46
2023/02/25 00:03:46;;;;;;;4.43;1.17;;;15.20;60.70;;;;;;5081901;28;20205;-47
2023/02/25 00:06:14;;;;;;;3.30;1.20;;;15.20;60.60;;;;;;5082970;28;20236;-46
2023/02/25 00:08:44;;;;;;;2.50;1.30;;;15.20;60.70;;;;;;5083690;28;20506;-46
2023/02/25 00:11:14;;;;;;;1.63;1.00;;;15.20;60.70;;;;;;5083690;28;20197;-46
2023/02/25 00:13:42;;;;;;;4.40;1.03;;;15.20;60.70;;;;;;5085938;28;20535;-46
2023/02/25 00:16:10;;;;;;;4.33;1.13;;;15.20;60.70;;;;;;5080660;28;20309;-46
2023/02/25 00:18:39;;;;;;;2.87;1.70;;;15.20;60.70;;;;;;5084552;28;20276;-46
2023/02/25 00:21:08;;;;;;;2.80;1.30;;;15.20;60.70;;;;;;5088969;28;20196;-47
2023/02/25 00:23:35;;;;;;;2.63;1.23;;;15.20;61.40;;;;;;5084399;28;20632;-46
2023/02/25 00:26:05;;;;;;;5.23;1.30;;;15.20;60.80;;;;;;5086636;28;20201;-46
2023/02/25 00:28:32;;;;;;;2.07;1.20;;;15.20;60.80;;;;;;5085858;28;20189;-46
2023/02/25 00:31:04;;;;;;;4.37;1.60;;;15.20;60.80;;;;;;5082678;28;20256;-46
2023/02/25 00:33:31;;;;;;;3.97;1.43;;;15.20;60.90;;;;;;5081479;28;20802;-47
2023/02/25 00:35:58;;;;;;;2.57;1.20;;;15.20;60.90;;;;;;5077672;28;20212;-46
2023/02/25 00:38:24;;;;;;;3.00;1.30;;;15.20;60.90;;;;;;5064702;28;20198;-46
2023/02/25 00:40:53;;;;;;;3.67;1.13;;;15.20;60.90;;;;;;5065659;28;20182;-46
2023/02/25 00:43:20;;;;;;;4.47;1.00;;;15.20;61.00;;;;;;5066888;28;20186;-46
2023/02/25 00:45:46;;;;;;;4.23;1.00;;;15.20;61.00;;;;;;5074120;28;20208;-46
2023/02/25 00:48:13;;;;;;;2.50;0.93;;;15.20;61.00;;;;;;5065161;28;20615;-46
2023/02/25 00:50:40;;;;;;;4.43;1.17;;;15.10;60.90;;;;;;5064142;28;20214;-46
2023/02/25 00:53:07;;;;;;;2.57;1.20;;;15.20;61.00;;;;;;5049711;28;20198;-47
2023/02/25 00:55:33;;;;;;;2.90;1.40;;;15.20;61.00;;;;;;5064817;28;20241;-46
2023/02/25 00:58:00;;;;;;;3.30;1.60;;;15.20;60.90;;;;;;5064436;28;20672;-46
2023/02/25 01:00:28;;;;;;;2.30;1.13;;;15.20;61.00;;;;;;5045614;28;20201;-47
2023/02/25 01:02:57;;;;;;;3.67;1.10;;;15.20;61.00;;;;;;5061687;28;20654;-46
2023/02/25 01:05:24;;;;;;;2.70;1.23;;;15.10;60.90;;;;;;5062095;28;20208;-46
2023/02/25 01:07:51;;;;;;;1.87;0.80;;;15.20;61.00;;;;;;5071092;28;20644;-46
2023/02/25 01:10:18;;;;;;;3.53;1.43;;;15.10;60.90;;;;;;5062446;28;20205;-46
2023/02/25 01:12:45;;;;;;;2.57;1.20;;;15.20;61.00;;;;;;5062581;28;20263;-46
2023/02/25 01:15:12;;;;;;;3.07;1.13;;;15.20;61.00;;;;;;5075991;28;20232;-46
2023/02/25 01:17:39;;;;;;;5.63;1.53;;;15.10;60.90;;;;;;5076061;28;20205;-46
2023/02/25 01:20:11;;;;;;;1.63;0.90;;;15.10;60.90;;;;;;5075092;28;20197;-46
2023/02/25 01:22:40;;;;;;;2.97;1.57;;;15.10;60.90;;;;;;5070629;28;20189;-46
2023/02/25 01:25:11;;;;;;;4.20;1.40;;;15.10;60.90;;;;;;5064282;28;20193;-46
2023/02/25 01:27:38;;;;;;;2.63;1.20;;;15.10;60.90;;;;;;5063749;28;20236;-46
2023/02/25 01:30:07;;;;;;;2.23;1.30;;;15.20;61.00;;;;;;5064925;28;20194;-46
2023/02/25 01:32:34;;;;;;;3.47;1.17;;;15.10;61.00;;;;;;5085301;28;20224;-46
2023/02/25 01:35:01;;;;;;;2.63;1.17;;;15.10;61.00;;;;;;5085162;28;20197;-46
2023/02/25 01:37:28;;;;;;;3.37;1.30;;;15.10;61.00;;;;;;5083922;28;20196;-46
2023/02/25 01:39:55;;;;;;;3.63;1.43;;;15.10;61.00;;;;;;5081441;28;20312;-46
2023/02/25 01:42:22;;;;;;;4.07;1.20;;;15.10;61.10;;;;;;5083467;28;20793;-47
2023/02/25 01:45:20;;;;;;;4.90;1.50;;;15.10;61.00;;;;;;5084606;28;20238;-46
2023/02/25 01:47:58;;;;;;;2.40;1.60;;;15.10;61.00;;;;;;5084783;28;20549;-45
2023/02/25 01:50:34;;;;;;;3.83;1.30;;;15.10;61.10;;;;;;5077511;28;20583;-46
2023/02/25 01:53:03;;;;;;;4.17;1.40;;;15.10;61.10;;;;;;5086409;28;20192;-46
2023/02/25 01:55:30;;;;;;;4.23;1.40;;;15.00;61.10;;;;;;5086479;28;20227;-46
2023/02/25 01:58:00;;;;;;;3.63;1.20;;;15.10;61.10;;;;;;5086019;28;20209;-46
2023/02/25 02:00:29;;;;;;;3.47;1.40;;;15.00;61.00;;;;;;5081326;28;20262;-47
2023/02/25 02:02:57;;;;;;;3.43;1.07;;;15.10;61.10;;;;;;5084255;28;20213;-46
2023/02/25 02:05:41;;;;;;;4.00;1.17;;;15.10;61.10;;;;;;5090145;28;20201;-46
2023/02/25 02:08:08;;;;;;;4.27;1.17;;;15.00;61.00;;;;;;5075443;28;20606;-46
2023/02/25 02:10:35;;;;;;;2.43;1.10;;;15.10;61.10;;;;;;5089835;28;20188;-46
2023/02/25 02:13:01;;;;;;;3.53;1.40;;;15.00;61.10;;;;;;5089351;28;20295;-46
2023/02/25 02:15:35;;;;;;;4.50;1.70;;;15.00;61.10;;;;;;5087101;28;20236;-46
2023/02/25 02:18:04;;;;;;;3.77;1.40;;;15.00;61.10;;;;;;5089427;28;20197;-46
2023/02/25 02:20:53;;;;;;;3.53;1.40;;;15.00;61.10;;;;;;5088613;28;20208;-46
2023/02/25 02:23:34;;;;;;;4.00;1.40;;;15.00;61.20;;;;;;5089158;28;20215;-46
2023/02/25 02:26:03;;;;;;;2.93;1.13;;;15.00;61.20;;;;;;5089516;28;20200;-46
2023/02/25 02:28:48;;;;;;;3.63;1.20;;;15.00;61.30;;;;;;5089329;28;20371;-46
2023/02/25 02:31:40;;;;;;;4.03;1.40;;;15.00;61.20;;;;;;5087644;28;20252;-46
2023/02/25 02:34:10;;;;;;;3.70;1.30;;;15.00;61.20;;;;;;5067488;28;20240;-46
2023/02/25 02:36:48;;;;;;;2.47;1.10;;;15.00;61.30;;;;;;5081471;28;20257;-46
2023/02/25 02:39:29;;;;;;;2.73;1.50;;;15.00;61.30;;;;;;5081999;28;20205;-46
2023/02/25 02:42:07;;;;;;;2.77;1.13;;;15.00;61.30;;;;;;5088847;28;20271;-46
2023/02/25 02:44:38;;;;;;;5.80;1.27;;;15.00;61.40;;;;;;5088142;28;20677;-46
2023/02/25 02:47:13;;;;;;;5.20;1.33;;;15.00;61.40;;;;;;5088912;28;20213;-46
2023/02/25 02:49:54;;;;;;;2.53;1.00;;;15.00;61.50;;;;;;5080627;28;20218;-45
2023/02/25 02:52:29;;;;;;;3.67;1.30;;;15.00;61.40;;;;;;5080746;28;20231;-46
2023/02/25 02:55:06;;;;;;;5.27;1.53;;;15.00;61.40;;;;;;5087628;28;20597;-46
2023/02/25 02:57:37;;;;;;;3.37;1.23;;;15.00;61.40;;;;;;5088610;28;20190;-46
2023/02/25 03:00:16;;;;;;;2.57;1.20;;;15.00;61.40;;;;;;5088955;28;20189;-46
2023/02/25 03:02:54;;;;;;;2.77;1.40;;;15.00;61.50;;;;;;5086301;28;20204;-46
2023/02/25 03:05:25;;;;;;;2.87;1.20;;;15.00;61.50;;;;;;5091761;28;20201;-46
2023/02/25 03:08:02;;;;;;;4.20;1.67;;;15.00;61.50;;;;;;5088572;28;20192;-46
2023/02/25 03:10:29;;;;;;;2.57;1.50;;;15.00;61.50;;;;;;5080206;28;20197;-46
2023/02/25 03:12:56;;;;;;;3.03;1.70;;;15.00;61.50;;;;;;5087307;28;20196;-46
2023/02/25 03:15:25;;;;;;;4.17;1.53;;;15.00;61.50;;;;;;5084765;28;20216;-46
2023/02/25 03:17:57;;;;;;;3.20;1.63;;;15.00;61.50;;;;;;5086931;28;20193;-46
2023/02/25 03:20:29;;;;;;;3.23;1.10;;;15.00;61.50;;;;;;5084906;28;20197;-47
2023/02/25 03:23:01;;;;;;;3.70;1.20;;;15.00;61.50;;;;;;5086545;28;20228;-47
2023/02/25 03:25:46;;;;;;;3.73;1.40;;;15.00;61.50;;;;;;5087717;28;20193;-46
2023/02/25 03:28:30;;;;;;;5.13;1.43;;;15.00;61.50;;;;;;5081308;28;20856;-46
2023/02/25 03:31:07;;;;;;;1.27;0.97;;;15.00;61.50;;;;;;5082180;28;20239;-47
2023/02/25 03:34:05;;;;;;;2.10;0.93;;;15.00;61.60;;;;;;5090913;28;20270;-46
2023/02/25 03:36:50;;;;;;;3.87;1.20;;;14.90;61.50;;;;;;5086189;28;20227;-46
2023/02/25 03:39:23;;;;;;;3.50;1.07;;;15.00;61.60;;;;;;5085471;28;20204;-46
2023/02/25 03:41:54;;;;;;;3.23;1.10;;;15.00;61.60;;;;;;5087884;28;20232;-47
2023/02/25 03:44:30;;;;;;;3.90;1.30;;;14.90;61.60;;;;;;5084208;28;20200;-46
2023/02/25 03:46:59;;;;;;;3.23;1.27;;;15.00;61.60;;;;;;5092283;28;20226;-46
2023/02/25 03:49:33;;;;;;;2.40;1.17;;;15.00;61.60;;;;;;5085668;28;20473;-46
2023/02/25 03:52:04;;;;;;;1.77;1.27;;;14.90;61.60;;;;;;5083968;28;20808;-46
2023/02/25 03:54:31;;;;;;;3.40;1.47;;;15.00;61.70;;;;;;5067274;28;20269;-46
2023/02/25 03:56:58;;;;;;;4.23;1.40;;;15.00;61.70;;;;;;5087468;28;20216;-47
2023/02/25 03:59:27;;;;;;;2.67;1.00;;;15.00;61.70;;;;;;5087868;28;20197;-47
2023/02/25 04:01:56;;;;;;;2.47;1.17;;;15.00;61.70;;;;;;5089259;28;20645;-46
2023/02/25 04:04:23;;;;;;;1.93;0.93;;;15.00;61.70;;;;;;5081704;28;20255;-46
2023/02/25 04:06:50;;;;;;;3.27;1.20;;;14.90;61.70;;;;;;5087292;28;20185;-46
2023/02/25 04:09:17;;;;;;;2.80;1.50;;;15.00;61.70;;;;;;5088813;28;20207;-46
2023/02/25 04:11:44;;;;;;;2.93;1.23;;;14.90;61.60;;;;;;5087934;28;20675;-46
2023/02/25 04:14:11;;;;;;;3.20;0.80;;;15.00;61.70;;;;;;5081857;28;20201;-46
2023/02/25 04:16:38;;;;;;;3.70;1.13;;;15.00;61.70;;;;;;5069512;28;20274;-47
2023/02/25 04:19:05;;;;;;;3.73;1.00;;;14.90;61.60;;;;;;5087819;28;20507;-46
2023/02/25 04:21:34;;;;;;;3.60;1.30;;;14.90;61.70;;;;;;5087105;28;20638;-47
2023/02/25 04:24:04;;;;;;;3.73;1.23;;;15.00;61.80;;;;;;5086947;28;20250;-46
2023/02/25 04:26:31;;;;;;;3.37;1.40;;;14.90;61.90;;;;;;5080997;28;20216;-46
2023/02/25 04:28:58;;;;;;;3.33;1.23;;;14.90;61.90;;;;;;5087552;28;20189;-47
2023/02/25 04:31:25;;;;;;;4.97;1.73;;;14.90;61.90;;;;;;5079080;28;20233;-46
2023/02/25 04:33:52;;;;;;;2.63;1.37;;;14.90;61.90;;;;;;5066726;28;20186;-46
2023/02/25 04:36:32;;;;;;;2.70;1.20;;;14.90;61.90;;;;;;5064945;28;20201;-46
2023/02/25 04:39:01;;;;;;;2.67;1.20;;;14.90;61.90;;;;;;5062633;28;20251;-46
2023/02/25 04:41:31;;;;;;;3.37;1.50;;;14.80;61.90;;;;;;5067726;28;20243;-46
2023/02/25 04:43:58;;;;;;;2.00;1.30;;;14.90;62.00;;;;;;5067042;28;20217;-47
2023/02/25 04:46:25;;;;;;;2.23;0.73;;;14.80;62.00;;;;;;5066795;28;20194;-46
2023/02/25 04:48:52;;;;;;;3.37;1.70;;;14.90;62.00;;;;;;5066080;28;20198;-46
2023/02/25 04:51:20;;;;;;;4.33;1.40;;;14.90;62.00;;;;;;5063876;28;20225;-46
2023/02/25 04:53:47;;;;;;;1.90;1.40;;;14.90;62.00;;;;;;5066473;28;20220;-46
2023/02/25 04:56:14;;;;;;;2.83;1.03;;;14.90;62.00;;;;;;5062767;28;20206;-46
2023/02/25 04:58:41;;;;;;;2.17;0.87;;;14.80;62.00;;;;;;5065707;28;20205;-46
2023/02/25 05:01:09;;;;;;;5.20;1.20;;;14.90;62.00;;;;;;5070464;28;20189;-46
2023/02/25 05:03:38;;;;;;;4.80;1.17;;;14.90;62.00;;;;;;5062790;28;20213;-46
2023/02/25 05:06:06;;;;;;;2.67;0.83;;;14.80;62.00;;;;;;5072392;28;20212;-46
2023/02/25 05:08:34;;;;;;;2.70;1.40;;;14.90;62.00;;;;;;5070254;28;20206;-46
2023/02/25 05:11:02;;;;;;;2.57;1.07;;;14.90;62.10;;;;;;5047634;28;20201;-46
2023/02/25 05:13:29;;;;;;;4.07;1.40;;;14.80;62.00;;;;;;5066390;28;20201;-46
2023/02/25 05:16:08;;;;;;;3.17;1.50;;;14.90;62.10;;;;;;5072339;28;20209;-46
2023/02/25 05:18:39;;;;;;;2.50;1.17;;;14.80;62.00;;;;;;5065511;28;20193;-46
2023/02/25 05:21:15;;;;;;;3.13;1.10;;;14.80;62.10;;;;;;5065876;28;20681;-46
2023/02/25 05:23:43;;;;;;;3.00;1.37;;;14.80;62.70;;;;;;5065584;28;20186;-45
2023/02/25 05:26:11;;;;;;;4.60;1.00;;;14.80;62.00;;;;;;5059780;28;20189;-46
2023/02/25 05:28:38;;;;;;;2.43;1.00;;;14.90;62.00;;;;;;5064461;28;20202;-46
2023/02/25 05:31:07;;;;;;;2.80;1.50;;;14.90;62.00;;;;;;5065572;28;20666;-46
2023/02/25 05:33:35;;;;;;;4.90;1.10;;;14.90;62.20;;;;;;5061762;28;20643;-46
2023/02/25 05:36:10;;;;;;;2.87;0.90;;;14.90;62.10;;;;;;5069457;28;20251;-46
2023/02/25 05:38:37;;;;;;;2.23;0.90;;;14.90;62.10;;;;;;5062655;28;20625;-46
2023/02/25 05:41:05;;;;;;;3.67;1.40;;;14.80;62.10;;;;;;5061413;28;20205;-46
2023/02/25 05:43:32;;;;;;;3.43;1.33;;;14.80;62.10;;;;;;5063611;28;20517;-46
2023/02/25 05:46:01;;;;;;;5.37;1.40;;;14.90;62.20;;;;;;5046795;28;20205;-46
2023/02/25 05:48:30;;;;;;;3.80;1.33;;;14.90;62.20;;;;;;5064321;28;20198;-46
2023/02/25 05:51:10;;;;;;;2.03;1.00;;;14.90;62.10;;;;;;5030504;28;20205;-46
2023/02/25 05:53:38;;;;;;;2.87;1.10;;;14.80;62.00;;;;;;5066154;28;20212;-46
2023/02/25 05:56:07;;;;;;;2.93;1.30;;;14.80;62.10;;;;;;5068989;28;20201;-46
2023/02/25 05:58:34;;;;;;;3.23;1.20;;;14.80;62.10;;;;;;5065564;28;20198;-46
2023/02/25 06:01:10;;;;;;;3.83;1.30;;;14.80;62.10;;;;;;5068160;28;20228;-46
2023/02/25 06:03:38;;;;;;;3.80;1.30;;;14.80;62.10;;;;;;5049509;28;20224;-47
2023/02/25 06:06:06;;;;;;;3.07;1.33;;;14.80;62.70;;;;;;5051553;28;20623;-46
2023/02/25 06:08:33;;;;;;;3.00;1.47;;;14.80;62.10;;;;;;5069158;28;20202;-46
2023/02/25 06:11:01;;;;;;;2.73;1.00;;;14.80;62.00;;;;;;5068059;28;20247;-46
2023/02/25 06:13:27;;;;;;;3.43;1.07;;;14.80;62.00;;;;;;5068413;28;20189;-46
2023/02/25 06:15:54;;;;;;;4.90;1.27;;;14.80;62.00;;;;;;5066394;28;20274;-46
2023/02/25 06:18:21;;;;;;;3.07;1.33;;;14.80;62.60;;;;;;5062778;28;20214;-46
2023/02/25 06:20:48;;;;;;;3.63;1.30;;;14.80;61.90;;;;;;5064788;28;20567;-46
2023/02/25 06:23:20;;;;;;;4.13;1.50;;;14.80;61.90;;;;;;5047773;28;20534;-47
2023/02/25 06:25:47;;;;;;;2.53;1.00;;;14.80;61.90;;;;;;5069595;28;20189;-46
2023/02/25 06:28:14;;;;;;;3.87;1.67;;;14.80;61.90;;;;;;5057531;28;20270;-46
2023/02/25 06:30:41;;;;;;;2.63;1.07;;;14.80;61.90;;;;;;5061966;28;20213;-46
2023/02/25 06:33:08;;;;;;;5.90;1.50;;;14.80;62.00;;;;;;5085278;28;20200;-46
2023/02/25 06:35:35;;;;;;;3.50;1.00;;;14.80;61.90;;;;;;5078705;28;20251;-46
2023/02/25 06:38:02;;;;;;;3.23;1.27;;;14.80;61.90;;;;;;5080602;28;20243;-46
2023/02/25 06:40:28;;;;;;;4.63;1.43;;;14.70;61.90;;;;;;5061905;28;20295;-45
2023/02/25 06:42:55;;;;;;;2.87;1.27;;;14.80;62.00;;;;;;5079842;28;20198;-46
2023/02/25 06:45:22;;;;;;;3.27;1.27;;;14.70;61.90;;;;;;5078174;28;21094;-46
2023/02/25 06:47:49;;;;;;;3.33;0.97;;;14.70;61.90;;;;;;5076980;28;20205;-46
2023/02/25 06:50:16;;;;;;;4.10;1.80;;;14.80;61.90;;;;;;5078296;28;20196;-45
2023/02/25 06:52:43;;;;;;;2.50;1.10;;;14.70;61.80;;;;;;5069621;28;20201;-46
2023/02/25 06:55:10;;;;;;;2.93;1.33;;;14.80;61.80;;;;;;5081178;28;20221;-46
2023/02/25 06:57:37;;;;;;;3.70;1.23;;;14.70;61.80;;;;;;5084712;28;20212;-45
2023/02/25 07:00:05;;;;;;;2.70;1.33;;;14.70;61.70;;;;;;5060718;28;20205;-46
2023/02/25 07:02:31;;;;;;;5.53;1.33;;;14.70;61.70;;;;;;5071217;28;20805;-46
2023/02/25 07:05:00;;;;;;;5.17;1.40;;;14.70;61.70;;;;;;5076150;28;20204;-46
2023/02/25 07:07:27;;;;;;;3.33;1.90;;;14.70;61.60;;;;;;5078569;28;20246;-45
2023/02/25 07:09:54;;;;;;;3.60;1.33;;;14.80;61.70;;;;;;5074291;28;20202;-46
2023/02/25 07:12:20;;;;;;;4.33;1.40;;;14.70;61.70;;;;;;5077758;28;20525;-46
2023/02/25 07:14:48;;;;;;;4.53;2.23;;;14.70;61.70;;;;;;5077063;28;20541;-46
2023/02/25 07:17:15;;;;;;;5.30;1.73;;;14.70;61.70;;;;;;5080818;28;20262;-46
2023/02/25 07:19:42;;;;;;;5.63;1.63;;;14.70;61.60;;;;;;5075496;28;20193;-46
2023/02/25 07:22:15;;;;;;;4.23;1.53;;;14.70;61.70;;;;;;5079531;28;20190;-46
2023/02/25 07:24:42;;;;;;;5.97;1.07;;;14.70;61.60;;;;;;5083216;28;20246;-46
2023/02/25 07:27:11;;;;;;;4.33;1.50;;;14.70;61.60;;;;;;5079388;28;20225;-46
2023/02/25 07:29:39;;;;;;;3.20;1.30;;;14.70;61.60;;;;;;5072381;28;20190;-47
2023/02/25 07:32:07;;;;;;;4.37;1.43;;;14.70;61.60;;;;;;5067465;28;20217;-46
2023/02/25 07:34:36;;;;;;;4.67;1.50;;;14.80;61.60;;;;;;5069176;28;20194;-46
2023/02/25 07:37:03;;;;;;;4.20;1.47;;;14.70;61.50;;;;;;5069453;28;20214;-46
2023/02/25 07:39:30;;;;;;;3.47;1.10;;;14.80;61.50;;;;;;5060704;28;20217;-46
2023/02/25 07:41:57;;;;;;;6.17;1.60;;;14.70;61.50;;;;;;5060840;28;20189;-46
2023/02/25 07:44:24;;;;;;;4.13;1.67;;;14.80;61.40;;;;;;5061821;28;20648;-46
2023/02/25 07:46:50;;;;;;;4.87;1.90;;;14.70;61.40;;;;;;5068154;28;20576;-46
2023/02/25 07:49:17;;;;;;;4.43;1.60;;;14.70;61.40;;;;;;5066678;28;20186;-47
2023/02/25 07:51:44;;;;;;;2.53;1.20;;;14.70;61.40;;;;;;5064121;28;20216;-46
2023/02/25 07:54:11;;;;;;;4.37;1.70;;;14.80;61.30;;;;;;5063595;28;20251;-46
2023/02/25 07:56:37;;;;;;;3.37;1.40;;;14.70;61.30;;;;;;5066599;28;20198;-46
2023/02/25 07:59:04;;;;;;;3.20;1.63;;;14.80;61.20;;;;;;5066955;28;20194;-46
2023/02/25 08:01:33;;;;;;;4.10;1.87;;;14.80;61.30;;;;;;5067477;28;20190;-46
2023/02/25 08:04:03;;;;;;;5.97;1.47;;;14.80;61.20;;;;;;5061726;28;20227;-56
2023/02/25 08:06:30;;;;;;;3.27;1.20;;;14.80;61.20;;;;;;5060887;28;20201;-46
2023/02/25 08:08:57;;;;;;;5.17;1.60;;;14.80;61.10;;;;;;5066153;28;20663;-46
2023/02/25 08:11:26;;;;;;;3.80;1.90;;;14.80;61.20;;;;;;5065255;28;20524;-46
2023/02/25 08:13:53;;;;;;;5.67;1.63;;;14.80;61.30;;;;;;5062690;28;20849;-46
2023/02/25 08:16:20;;;;;;;3.93;1.90;;;14.80;61.30;;;;;;5062966;28;20279;-46
2023/02/25 08:18:48;;;;;;;21.20;4.50;;;14.80;61.40;;;;;;5065269;28;20229;-46
2023/02/25 08:21:17;;;;;;;84.97;17.50;;;14.80;61.90;;;;;;5049016;28;20224;-47
2023/02/25 08:23:44;;;;;;;56.47;13.27;;;14.80;62.80;;;;;;5065573;28;20512;-46
2023/02/25 08:26:11;;;;;;;47.77;12.07;;;14.90;63.00;;;;;;5060687;28;20255;-47
2023/02/25 08:28:38;;;;;;;62.03;11.83;;;14.90;62.70;;;;;;5058396;28;20209;-46
2023/02/25 08:31:07;;;;;;;39.60;10.47;;;14.90;62.50;;;;;;5063814;28;20243;-46
2023/02/25 08:33:34;;;;;;;41.07;10.37;;;14.90;62.30;;;;;;5067245;28;20283;-47
2023/02/25 08:36:20;;;;;;;41.10;10.87;;;14.90;62.20;;;;;;5067048;28;20255;-46
2023/02/25 08:38:48;;;;;;;35.43;8.77;;;14.90;62.00;;;;;;5061457;28;20659;-47
2023/02/25 08:41:16;;;;;;;34.37;8.70;;;14.90;61.90;;;;;;5069379;28;20186;-47
2023/02/25 08:43:43;;;;;;;26.47;6.80;;;14.90;61.70;;;;;;5067746;28;20208;-46
2023/02/25 08:46:10;;;;;;;31.00;7.97;;;14.80;61.40;;;;;;5075801;28;20205;-47
2023/02/25 08:48:39;;;;;;;22.63;6.33;;;14.80;61.10;;;;;;5068647;28;20667;-46
2023/02/25 08:51:10;;;;;;;18.37;5.33;;;14.90;61.30;;;;;;5059035;28;20218;-46
2023/02/25 08:53:40;;;;;;;19.97;5.63;;;14.80;61.10;;;;;;5052790;28;20214;-47
2023/02/25 08:56:15;;;;;;;18.33;4.47;;;14.80;61.10;;;;;;5039889;28;20219;-47
2023/02/25 08:58:48;;;;;;;18.87;5.20;;;14.80;60.90;;;;;;5066009;28;20221;-47
2023/02/25 09:01:16;;;;;;;18.97;4.37;;;14.90;61.10;;;;;;5067581;28;20194;-46
2023/02/25 09:03:53;;;;;;;16.97;5.43;;;14.90;60.90;;;;;;5058676;28;20201;-46
2023/02/25 09:06:29;;;;;;;12.33;3.77;;;14.90;61.00;;;;;;5033481;28;20186;-46
2023/02/25 09:09:01;;;;;;;17.33;4.27;;;14.90;61.00;;;;;;5069288;28;20274;-46
2023/02/25 09:11:31;;;;;;;13.60;4.30;;;14.90;61.00;;;;;;5051061;28;20197;-46
2023/02/25 09:14:02;;;;;;;15.73;4.23;;;14.90;61.00;;;;;;5037436;28;20259;-47
2023/02/25 09:16:31;;;;;;;11.20;3.77;;;14.90;60.90;;;;;;5065152;28;20205;-46
2023/02/25 09:19:00;;;;;;;10.63;3.27;;;14.90;60.80;;;;;;5073057;28;20271;-46
2023/02/25 09:21:30;;;;;;;7.33;2.60;;;14.90;60.50;;;;;;5063593;28;20209;-46
2023/02/25 09:24:01;;;;;;;10.63;3.17;;;14.90;60.50;;;;;;5021152;28;20198;-46
2023/02/25 09:26:33;;;;;;;11.27;3.10;;;14.90;60.40;;;;;;5070021;28;20663;-46
2023/02/25 09:29:05;;;;;;;8.37;2.93;;;14.90;60.30;;;;;;5073231;28;20251;-46
2023/02/25 09:31:35;;;;;;;7.63;3.03;;;14.90;60.40;;;;;;5061267;28;20236;-46
2023/02/25 09:34:06;;;;;;;8.70;2.80;;;14.90;60.60;;;;;;5051312;28;20225;-46
2023/02/25 09:36:37;;;;;;;7.70;2.50;;;14.90;60.40;;;;;;5062259;28;20185;-46
2023/02/25 09:39:10;;;;;;;8.50;2.43;;;14.90;60.30;;;;;;5066023;28;20237;-46
2023/02/25 09:41:59;;;;;;;12.17;3.10;;;14.90;60.20;;;;;;5055234;28;20214;-47
2023/02/25 09:44:48;;;;;;;6.93;2.40;;;14.90;60.10;;;;;;5076832;28;20678;-46
2023/02/25 09:47:34;;;;;;;6.47;2.07;;;14.90;60.00;;;;;;5046257;28;20194;-46
2023/02/25 09:50:22;;;;;;;7.67;2.00;;;14.90;60.20;;;;;;5070792;28;20204;-46
2023/02/25 09:53:28;;;;;;;7.20;2.53;;;14.90;60.20;;;;;;5070821;28;20620;-46
2023/02/25 09:55:58;;;;;;;9.03;3.23;;;14.90;60.10;;;;;;5071449;28;20193;-46
2023/02/25 09:58:45;;;;;;;8.10;2.97;;;14.90;60.30;;;;;;5045924;28;20233;-47
2023/02/25 10:01:56;;;;;;;10.70;2.93;;;14.90;60.90;;;;;;5047926;28;20210;-46
2023/02/25 10:04:57;;;;;;;8.50;2.27;;;15.00;61.30;;;;;;5035379;28;20216;-46
2023/02/25 10:08:02;;;;;;;9.03;2.83;;;14.90;61.50;;;;;;5069141;28;20202;-46
2023/02/25 10:10:48;;;;;;;6.80;2.60;;;14.90;62.00;;;;;;5003487;28;20219;-48
2023/02/25 10:13:57;;;;;;;6.87;2.63;;;14.90;62.00;;;;;;5070709;28;20629;-46
2023/02/25 10:16:28;;;;;;;6.87;2.37;;;15.00;62.40;;;;;;5053897;28;20224;-46
2023/02/25 10:19:22;;;;;;;6.10;2.20;;;14.90;62.20;;;;;;5070237;28;20247;-46
2023/02/25 10:22:35;;;;;;;6.37;2.37;;;14.90;62.20;;;;;;5049488;28;20202;-46
2023/02/25 10:25:27;;;;;;;4.77;1.60;;;14.90;62.50;;;;;;5029749;28;20272;-46
2023/02/25 10:28:06;;;;;;;7.23;2.67;;;14.90;62.50;;;;;;5019948;28;20619;-46
2023/02/25 10:30:51;;;;;;;6.07;2.10;;;14.90;62.70;;;;;;5022814;28;20202;-47
2023/02/25 10:33:23;;;;;;;5.00;2.20;;;14.90;62.70;;;;;;5028916;28;20229;-46
2023/02/25 10:36:22;;;;;;;6.93;2.50;;;14.90;62.90;;;;;;5047481;28;20679;-46
2023/02/25 10:38:53;;;;;;;4.83;1.70;;;14.90;62.80;;;;;;5046370;28;20225;-46
2023/02/25 10:41:22;;;;;;;5.20;1.70;;;14.90;62.90;;;;;;5051383;28;20259;-46
2023/02/25 10:43:52;;;;;;;7.20;2.07;;;14.90;63.30;;;;;;4998124;28;20220;-47
2023/02/25 10:46:53;;;;;;;5.63;1.80;;;14.90;63.30;;;;;;5049174;28;20194;-46
2023/02/25 10:49:29;;;;;;;5.20;1.80;;;14.90;63.60;;;;;;5041183;28;20217;-46
2023/02/25 10:52:17;;;;;;;5.33;2.50;;;14.90;63.60;;;;;;5012936;28;20253;-46
2023/02/25 10:54:52;;;;;;;4.47;1.87;;;14.90;63.60;;;;;;5052599;28;20217;-46
2023/02/25 10:57:37;;;;;;;4.67;1.60;;;14.90;64.30;;;;;;5070840;28;20208;-46
2023/02/25 11:00:20;;;;;;;5.33;1.73;;;14.90;63.50;;;;;;5070625;28;20182;-46
2023/02/25 11:02:57;;;;;;;3.77;1.50;;;14.90;63.50;;;;;;5067305;28;20218;-47
2023/02/25 11:05:40;;;;;;;3.73;1.40;;;15.00;64.00;;;;;;5068226;28;20534;-46
2023/02/25 11:08:32;;;;;;;4.30;1.43;;;14.90;63.50;;;;;;5060623;28;20523;-47
2023/02/25 11:11:19;;;;;;;5.57;1.73;;;14.90;63.60;;;;;;5060313;28;20205;-47
2023/02/25 11:14:26;;;;;;;3.57;1.13;;;15.00;63.80;;;;;;5069775;28;20201;-47
2023/02/25 11:17:21;;;;;;;1.90;1.10;;;15.00;63.40;;;;;;5019509;28;20282;-47
2023/02/25 11:20:00;;;;;;;4.67;1.33;;;14.90;62.90;;;;;;5036144;28;20197;-46
2023/02/25 11:22:42;;;;;;;3.00;1.27;;;14.90;63.50;;;;;;5065282;28;20722;-46
2023/02/25 11:25:31;;;;;;;2.70;1.23;;;14.90;63.70;;;;;;5049928;28;20200;-46
2023/02/25 11:28:02;;;;;;;3.40;1.40;;;14.90;63.40;;;;;;5064613;28;20229;-46
2023/02/25 11:30:38;;;;;;;2.63;1.03;;;14.90;63.70;;;;;;5060971;28;20268;-46
2023/02/25 11:33:29;;;;;;;3.33;1.17;;;14.90;64.00;;;;;;5058171;28;20244;-46
2023/02/25 11:36:00;;;;;;;2.97;1.20;;;15.00;63.90;;;;;;5062891;28;20278;-47
2023/02/25 11:38:40;;;;;;;4.17;1.60;;;15.00;63.80;;;;;;5081946;28;20948;-47
2023/02/25 11:41:22;;;;;;;3.27;1.73;;;15.00;64.20;;;;;;5069197;28;20575;-47
2023/02/25 11:43:53;;;;;;;7.17;1.20;;;15.00;63.80;;;;;;5068762;28;20204;-46
2023/02/25 11:46:29;;;;;;;3.07;1.23;;;15.00;63.90;;;;;;5063935;28;20197;-47
2023/02/25 11:49:46;;;;;;;2.40;1.27;;;15.00;63.90;;;;;;5054930;28;20685;-46
2023/02/25 11:52:22;;;;;;;4.10;0.80;;;15.00;64.10;;;;;;5074007;28;20224;-46
2023/02/25 11:55:28;;;;;;;3.13;1.30;;;15.00;64.40;;;;;;5060344;28;20200;-47
2023/02/25 11:58:34;;;;;;;2.67;1.10;;;15.00;64.50;;;;;;5086688;28;20204;-47
2023/02/25 12:01:34;;;;;;;3.10;0.83;;;15.00;64.30;;;;;;5066844;28;20610;-46
2023/02/25 12:04:33;;;;;;;1.53;0.70;;;15.00;64.30;;;;;;5084046;28;20388;-46
2023/02/25 12:07:26;;;;;;;3.93;0.70;;;15.10;64.80;;;;;;5085565;28;20553;-46
2023/02/25 12:10:50;;;;;;;2.13;0.90;;;15.10;64.00;;;;;;5076472;28;20194;-46
2023/02/25 12:13:42;;;;;;;2.17;1.03;;;15.10;64.10;;;;;;5023437;28;20590;-47
2023/02/25 12:16:54;;;;;;;2.20;0.83;;;15.10;63.80;;;;;;5079849;28;20193;-47
2023/02/25 12:19:39;;;;;;;2.20;1.00;;;15.10;64.30;;;;;;5075159;28;20225;-46
2023/02/25 12:22:37;;;;;;;5.07;0.97;;;15.20;64.30;;;;;;5082835;28;20213;-46
2023/02/25 12:25:41;;;;;;;2.43;0.83;;;15.20;64.90;;;;;;5089325;28;20208;-46
2023/02/25 12:28:44;;;;;;;2.43;1.10;;;15.10;64.10;;;;;;5076672;28;20216;-46
2023/02/25 12:31:34;;;;;;;4.23;1.00;;;15.20;65.40;;;;;;5077731;28;20197;-46
2023/02/25 12:34:30;;;;;;;1.67;0.57;;;15.20;65.60;;;;;;5081854;28;20216;-46
2023/02/25 12:37:29;;;;;;;2.90;1.07;;;15.30;65.60;;;;;;5079109;28;20197;-46
2023/02/25 12:40:47;;;;;;;2.10;0.73;;;15.30;65.20;;;;;;5067000;28;20622;-46
2023/02/25 12:43:53;;;;;;;3.00;0.80;;;15.40;64.70;;;;;;5032473;28;20228;-47
2023/02/25 12:46:51;;;;;;;3.17;1.03;;;15.40;64.70;;;;;;5083799;28;20617;-46
2023/02/25 12:49:38;;;;;;;2.13;1.00;;;15.40;64.50;;;;;;5082461;28;20189;-47
2023/02/25 12:52:35;;;;;;;2.17;0.77;;;15.30;64.30;;;;;;5081165;28;20521;-46
2023/02/25 12:55:36;;;;;;;2.20;0.70;;;15.30;64.30;;;;;;5084336;28;20185;-47
2023/02/25 12:58:43;;;;;;;2.37;1.03;;;15.30;64.20;;;;;;5083969;28;20204;-46
2023/02/25 13:01:37;;;;;;;2.07;0.73;;;15.30;64.10;;;;;;5086935;28;20197;-47
2023/02/25 13:04:41;;;;;;;3.87;1.10;;;15.30;64.00;;;;;;5075625;28;20286;-46
2023/02/25 13:07:37;;;;;;;3.50;0.80;;;15.30;64.10;;;;;;5081563;28;20200;-47
2023/02/25 13:10:32;;;;;;;2.00;1.00;;;15.30;63.70;;;;;;5082747;28;20196;-46
2023/02/25 13:13:53;;;;;;;2.97;1.07;;;15.30;63.40;;;;;;5085738;28;20198;-46
2023/02/25 13:16:51;;;;;;;2.90;1.00;;;15.30;63.70;;;;;;5078333;28;20266;-46
2023/02/25 13:19:50;;;;;;;2.53;0.87;;;15.30;63.20;;;;;;5065430;28;20858;-46
2023/02/25 13:23:04;;;;;;;3.03;1.20;;;15.30;63.60;;;;;;5072699;28;20193;-46
2023/02/25 13:26:04;;;;;;;4.23;1.03;;;15.20;63.00;;;;;;5066466;28;20193;-46
2023/02/25 13:29:01;;;;;;;3.07;1.00;;;15.20;63.40;;;;;;5079215;28;20220;-46